Pagina principale
METAR-TAF:

METAR-TAF

Aeroporti :

Aeroporto di Cordoba-Ing. A. L. V. Taravella

Córdoba, Argentina

latitudine: 31-19S, longitudine: 064-13W, altezza: 484 m

Osservazione

Il bollettino è stato emesso 50 minuti fa, alle 05:00 UTC
Vento 11 kt da nord/nord-est
Temperature 19°C
Umidità 40%
Pressione 1005 hPa
Visibilità 10 km o più
nessuna nube inferiore a 1500 m e nessun cumulonembo

METAR: SACO 160500Z 02011KT CAVOK 19/05 Q1005 NOSIG

Ora: 02:50 (05:50 UTC)

Previsione

Il bollettino è stato emesso 50 minuti fa, alle 05:00 UTC
Previsione valida dal 16 alle 06 UTC al 17 alle 06 UTC
Vento 10 kt da nord
Visibilità 10 km o più
nessuna nube inferiore a 1500 m e nessun cumulonembo
Evoluzione graduale
dal 16 alle 13 UTC al 16 alle 16 UTC
Vento 10 kt da nord/nord-ovest con raffiche fino a 25 kt

TAF: SACO 160500Z 1606/1706 36010KT CAVOK TX32/1618Z TN11/1610Z BECMG 1613/1616 34010G25KT

Osservazioni e previsioni meteorologiche di più di 4000 aeroporti (messaggi METAR e TAF).

Le stazioni disponibili sono rappresentate dai dischi gialli e rossi sulla carta.

Puntare il mouse per vedere il nome della stazione.

Clicca sopra per visualizzare le osservazioni e previsioni meteorologiche.

Per cambiare la mappa : fare clic sui pulsanti verdi con una croce nera per ingrandire, il pulsante verde con un trattino per diminuire, o sulla freccia verde per le mappe adiacenti.


METAR-TAF: